createdAt,value
2022-09-12T00:04:12.413Z,90.31
2022-09-12T00:09:19.734Z,90.32001
2022-09-12T00:14:27.754Z,90.64
2022-09-12T00:19:34.551Z,90.31
2022-09-12T00:24:42.518Z,90.5
2022-09-12T00:29:50.404Z,90.16001
2022-09-12T00:34:57.123Z,90.18001
2022-09-12T00:40:04.169Z,90.38
2022-09-12T00:45:10.640Z,90.23001
2022-09-12T00:50:17.816Z,90.2
2022-09-12T00:55:25.929Z,90.35
2022-09-12T01:00:33.599Z,90.36
2022-09-12T01:05:41.996Z,90.48
2022-09-12T01:10:49.680Z,90.78
2022-09-12T01:15:57.577Z,91.29001
2022-09-12T01:21:05.374Z,90.71
2022-09-12T01:26:13.396Z,90.71
2022-09-12T01:31:20.533Z,90.84
2022-09-12T01:36:27.947Z,90.86
2022-09-12T01:41:37.003Z,90.98001
2022-09-12T01:46:44.933Z,90.98001
2022-09-12T01:51:52.918Z,90.96
2022-09-12T01:56:59.732Z,91.34
2022-09-12T02:02:08.081Z,91.11
2022-09-12T02:07:15.859Z,91.42
2022-09-12T02:12:21.974Z,91.06
2022-09-12T02:17:30.496Z,90.94001
2022-09-12T02:22:38.370Z,91.31
2022-09-12T02:27:45.584Z,91.38
2022-09-12T02:32:53.837Z,91.17
2022-09-12T02:38:01.198Z,91.18
2022-09-12T02:43:08.805Z,91.27
2022-09-12T02:48:15.070Z,91.26
2022-09-12T02:53:22.341Z,91.04
2022-09-12T02:58:30.285Z,90.9
2022-09-12T03:03:38.512Z,91.17
2022-09-12T03:08:46.871Z,91.26
2022-09-12T03:13:54.171Z,91.64001
2022-09-12T03:19:00.698Z,91.6
2022-09-12T03:24:09.688Z,91.56
2022-09-12T03:29:17.362Z,91.51999
2022-09-12T03:34:24.316Z,91.47
2022-09-12T03:39:32.139Z,91.62001
2022-09-12T03:44:39.289Z,91.74
2022-09-12T03:49:47.595Z,91.48001
2022-09-12T03:54:54.976Z,91.50001
2022-09-12T04:00:02.708Z,91.58999
2022-09-12T04:05:11.280Z,91.48001
2022-09-12T04:10:20.131Z,91.54
2022-09-12T04:15:27.853Z,91.42
2022-09-12T04:20:41.161Z,91.95
2022-09-12T04:25:47.920Z,91.84
2022-09-12T04:30:55.608Z,91.79
2022-09-12T04:36:02.780Z,91.73
2022-09-12T04:41:10.011Z,92.23001
2022-09-12T04:46:17.854Z,92.16001
2022-09-12T04:51:25.019Z,92.32
2022-09-12T04:56:32.213Z,92.3
2022-09-12T05:01:40.571Z,92.38
2022-09-12T05:06:47.902Z,92.28
2022-09-12T05:11:56.405Z,92.04
2022-09-12T05:17:04.286Z,91.76001
2022-09-12T05:22:18.456Z,91.58
2022-09-12T05:27:25.779Z,91.47
2022-09-12T05:32:34.170Z,91.53
2022-09-12T05:37:41.338Z,91.50001
2022-09-12T05:42:48.891Z,91.63
2022-09-12T05:47:56.396Z,91.62001
2022-09-12T05:53:03.575Z,91.42
2022-09-12T05:58:12.037Z,90.94001
2022-09-12T06:03:20.543Z,90.31
2022-09-12T06:08:27.107Z,90.19
2022-09-12T06:13:34.294Z,89.99
2022-09-12T06:18:41.162Z,89.32
2022-09-12T06:23:49.585Z,89.38
2022-09-12T06:28:56.876Z,89.01999
2022-09-12T06:34:04.382Z,89.01999
2022-09-12T06:39:11.575Z,88.46
2022-09-12T06:44:20.668Z,88.72001
2022-09-12T06:49:29.962Z,88.51001
2022-09-12T06:54:37.124Z,88.30001
2022-09-12T06:59:43.612Z,88.45
2022-09-12T07:04:52.047Z,88.19
2022-09-12T07:09:59.927Z,87.83999
2022-09-12T07:15:08.381Z,87.29
2022-09-12T07:20:17.450Z,86.74
2022-09-12T07:25:26.636Z,86.50001
2022-09-12T07:30:34.844Z,86.71
2022-09-12T07:35:42.435Z,85.89
2022-09-12T07:40:50.310Z,85.49
2022-09-12T07:45:59.142Z,84.08999
2022-09-12T07:51:07.708Z,84.5
2022-09-12T07:56:14.646Z,84.28
2022-09-12T08:01:24.008Z,83.43
2022-09-12T08:06:30.941Z,83.38
2022-09-12T08:11:39.056Z,83.24
2022-09-12T08:16:45.658Z,82.56
2022-09-12T08:21:53.295Z,81.76001
2022-09-12T08:27:00.729Z,81.38
2022-09-12T08:32:07.963Z,82.94001
2022-09-12T08:37:13.819Z,80.77
2022-09-12T08:42:22.046Z,80.85
2022-09-12T08:47:29.846Z,78.89
2022-09-12T08:52:37.001Z,77.51
2022-09-12T08:57:44.521Z,76.88
2022-09-12T09:02:52.090Z,76.42
2022-09-12T09:07:59.581Z,76.24
2022-09-12T09:13:07.046Z,76.44001
2022-09-12T09:18:14.636Z,70.92
2022-09-12T09:23:23.453Z,72.75
2022-09-12T09:28:30.485Z,66.66
2022-09-12T09:33:36.859Z,65.7
2022-09-12T09:38:44.061Z,67.54
2022-09-12T09:43:51.901Z,65.82
2022-09-12T09:48:58.661Z,65.62
2022-09-12T09:54:05.911Z,64.88
2022-09-12T09:59:13.353Z,66.24
2022-09-12T10:04:20.801Z,62.73
2022-09-12T10:09:27.832Z,64.73001
2022-09-12T10:14:37.006Z,64.21
2022-09-12T10:19:45.767Z,60.3
2022-09-12T10:24:53.366Z,59.88
2022-09-12T10:30:02.506Z,57.43
2022-09-12T10:35:09.000Z,61.29
2022-09-12T10:40:15.581Z,62.81
2022-09-12T10:45:22.136Z,63.59
2022-09-12T10:50:31.769Z,61.54
2022-09-12T10:55:40.527Z,61.75
2022-09-12T11:00:47.963Z,59.39
2022-09-12T11:05:56.954Z,58.44
2022-09-12T11:11:04.098Z,60.1
2022-09-12T11:16:12.936Z,63.46
2022-09-12T11:21:20.744Z,64.26
2022-09-12T11:26:26.794Z,61.17
2022-09-12T11:31:35.005Z,62.2
2022-09-12T11:36:43.607Z,63.68
2022-09-12T11:41:50.414Z,60.38
2022-09-12T11:46:56.890Z,60.36
2022-09-12T11:52:04.802Z,61.89
2022-09-12T11:57:11.929Z,61.59
2022-09-12T12:02:19.817Z,62.6
2022-09-12T12:07:26.939Z,62.37
2022-09-12T12:12:34.136Z,64.0
2022-09-12T12:17:40.736Z,64.1
2022-09-12T12:22:47.957Z,63.7
2022-09-12T12:27:55.708Z,60.04
2022-09-12T12:33:02.328Z,62.74
2022-09-12T12:38:09.523Z,62.98
2022-09-12T12:43:17.320Z,63.57
2022-09-12T12:48:24.587Z,58.74
2022-09-12T12:53:31.743Z,58.14
2022-09-12T12:58:42.813Z,55.76
2022-09-12T13:03:50.003Z,56.98
2022-09-12T13:08:57.815Z,57.79
2022-09-12T13:14:05.303Z,57.39
2022-09-12T13:19:12.535Z,57.86
2022-09-12T13:24:18.914Z,57.31
2022-09-12T13:29:25.335Z,56.37
2022-09-12T13:34:33.305Z,55.72
2022-09-12T13:39:41.423Z,56.78
2022-09-12T13:44:49.233Z,56.67
2022-09-12T13:49:57.333Z,58.23
2022-09-12T13:55:06.424Z,53.77
2022-09-12T14:00:14.324Z,52.98
2022-09-12T14:05:20.862Z,51.78
2022-09-12T14:10:28.740Z,47.94
2022-09-12T14:15:39.196Z,51.74
2022-09-12T14:20:45.015Z,54.21
2022-09-12T14:25:51.593Z,48.78
2022-09-12T14:30:59.246Z,48.71
2022-09-12T14:36:06.616Z,51.55
2022-09-12T14:41:13.534Z,57.7
2022-09-12T14:46:22.613Z,57.99
2022-09-12T14:51:30.938Z,56.51
2022-09-12T14:56:37.986Z,57.3
2022-09-12T15:01:44.752Z,60.19
2022-09-12T15:06:51.784Z,63.2
2022-09-12T15:12:00.227Z,64.8
2022-09-12T15:17:07.425Z,65.75
2022-09-12T15:22:21.613Z,66.11
2022-09-12T15:27:30.082Z,67.68
2022-09-12T15:32:37.761Z,68.36
2022-09-12T15:37:45.197Z,66.89
2022-09-12T15:42:53.579Z,66.56
2022-09-12T15:48:00.681Z,66.85
2022-09-12T15:53:07.454Z,68.45
2022-09-12T15:58:14.973Z,69.86
2022-09-12T16:03:22.544Z,70.1
2022-09-12T16:08:29.839Z,69.81
2022-09-12T16:13:36.958Z,71.91
2022-09-12T16:18:44.646Z,73.9
2022-09-12T16:23:52.580Z,74.66001
2022-09-12T16:29:00.287Z,74.87
2022-09-12T16:34:08.135Z,75.16
2022-09-12T16:39:15.461Z,76.02
2022-09-12T16:44:23.227Z,77.2
2022-09-12T16:49:31.131Z,78.24
2022-09-12T16:54:37.992Z,78.5
2022-09-12T16:59:45.529Z,79.92
2022-09-12T17:04:52.720Z,80.37001
2022-09-12T17:09:58.656Z,81.25
2022-09-12T17:15:06.089Z,81.39
2022-09-12T17:20:13.621Z,81.99
2022-09-12T17:25:20.252Z,82.48
2022-09-12T17:30:27.465Z,83.03
2022-09-12T17:35:35.768Z,82.42
2022-09-12T17:40:43.644Z,82.02
2022-09-12T17:45:51.661Z,82.79
2022-09-12T17:50:59.416Z,83.48001
2022-09-12T17:56:08.603Z,83.73
2022-09-12T18:01:17.292Z,84.51
2022-09-12T18:06:24.895Z,84.71
2022-09-12T18:11:32.079Z,84.69001
2022-09-12T18:16:40.857Z,84.33001
2022-09-12T18:21:48.127Z,84.54
2022-09-12T18:26:56.256Z,84.36
2022-09-12T18:32:04.033Z,84.98
2022-09-12T18:37:11.260Z,85.68
2022-09-12T18:42:19.669Z,85.83
2022-09-12T18:47:26.977Z,85.92
2022-09-12T18:52:34.424Z,86.38
2022-09-12T18:57:42.585Z,86.24
2022-09-12T19:02:49.981Z,86.51999
2022-09-12T19:07:57.098Z,86.8
2022-09-12T19:13:04.970Z,86.8
2022-09-12T19:18:13.833Z,86.94
2022-09-12T19:23:23.578Z,86.93
2022-09-12T19:28:31.025Z,87.02
2022-09-12T19:33:38.902Z,87.03
2022-09-12T19:38:45.439Z,87.52
2022-09-12T19:43:53.265Z,87.97
2022-09-12T19:49:00.478Z,87.93
2022-09-12T20:17:24.648Z,88.28
2022-09-12T20:22:30.016Z,88.62
2022-09-12T20:27:43.935Z,88.88
2022-09-12T20:32:50.096Z,88.81
2022-09-12T20:37:57.376Z,89.03
2022-09-12T20:43:04.767Z,89.21
2022-09-12T20:48:11.778Z,89.1
2022-09-12T20:53:19.261Z,89.63
2022-09-12T20:58:27.975Z,89.52
2022-09-12T21:03:34.711Z,89.62001
2022-09-12T21:08:42.839Z,89.36
2022-09-12T21:13:56.731Z,89.64
2022-09-12T21:19:03.925Z,90.01
2022-09-12T21:24:12.458Z,89.87
2022-09-12T21:29:21.200Z,90.03
2022-09-12T21:34:29.306Z,89.69001
2022-09-12T21:39:37.859Z,90.02
2022-09-12T21:44:45.780Z,90.28
2022-09-12T21:49:52.837Z,90.2
2022-09-12T21:55:00.210Z,90.19
2022-09-12T22:00:08.209Z,90.25001
2022-09-12T22:05:14.830Z,90.46
2022-09-12T22:10:23.570Z,90.62
2022-09-12T22:15:31.972Z,90.54
2022-09-12T22:20:41.108Z,90.76
2022-09-12T22:25:47.766Z,90.94001
2022-09-12T22:30:55.485Z,90.82
2022-09-12T22:36:03.250Z,90.94001
2022-09-12T22:41:10.648Z,90.84
2022-09-12T22:46:18.232Z,91.02
2022-09-12T22:51:25.030Z,91.0
2022-09-12T22:56:32.696Z,91.0
2022-09-12T23:01:40.327Z,90.75
2022-09-12T23:06:48.098Z,90.82
2022-09-12T23:11:55.589Z,90.85
2022-09-12T23:17:04.441Z,90.76
2022-09-12T23:22:12.097Z,91.0
2022-09-12T23:27:19.898Z,90.85
2022-09-12T23:32:28.939Z,90.92
2022-09-12T23:37:36.998Z,91.06
2022-09-12T23:42:45.141Z,91.08001
2022-09-12T23:47:51.759Z,91.38
2022-09-12T23:52:58.470Z,91.63
2022-09-12T23:58:06.905Z,91.58
